createdAt,value
2022-08-20T00:01:04.712Z,6.08
2022-08-20T00:21:10.486Z,5.49
2022-08-20T00:41:16.289Z,4.96
2022-08-20T01:01:22.161Z,3.92
2022-08-20T01:21:27.885Z,4.06
2022-08-20T01:41:33.703Z,4.36
2022-08-20T02:01:46.728Z,4.31
2022-08-20T02:21:44.741Z,3.87
2022-08-20T02:41:50.512Z,4.17
2022-08-20T03:02:00.817Z,3.84
2022-08-20T03:22:01.577Z,3.67
2022-08-20T03:42:07.740Z,5.36
2022-08-20T04:02:14.028Z,5.83
2022-08-20T04:22:20.216Z,5.18
2022-08-20T04:42:26.055Z,6.80
2022-08-20T05:02:31.847Z,6.28
2022-08-20T05:22:40.213Z,6.60
2022-08-20T05:42:45.975Z,6.47
2022-08-20T06:02:51.725Z,6.90
2022-08-20T06:22:57.484Z,6.91
2022-08-20T06:43:03.240Z,6.88
2022-08-20T07:03:09.010Z,6.37
2022-08-20T07:23:14.740Z,6.61
2022-08-20T07:43:20.976Z,7.13
2022-08-20T08:03:39.597Z,8.27
2022-08-20T08:23:32.193Z,10.44
2022-08-20T08:43:37.736Z,10.02
2022-08-20T09:03:43.941Z,10.07
2022-08-20T09:23:50.180Z,14.38
2022-08-20T09:43:55.923Z,14.65
2022-08-20T10:04:01.698Z,13.72
2022-08-20T10:24:07.636Z,16.74
2022-08-20T10:44:13.428Z,18.99
2022-08-20T11:04:19.184Z,19.13
2022-08-20T11:24:25.470Z,15.85
2022-08-20T11:44:31.249Z,15.37
2022-08-20T12:04:37.420Z,16.47
2022-08-20T12:24:43.224Z,15.62
2022-08-20T12:44:48.947Z,15.42
2022-08-20T13:04:55.184Z,16.68
2022-08-20T13:25:00.961Z,17.31
2022-08-20T13:45:07.257Z,15.34
2022-08-20T14:05:14.207Z,14.83
2022-08-20T14:25:19.271Z,13.09
2022-08-20T14:45:25.462Z,13.61
2022-08-20T15:05:31.682Z,14.00
2022-08-20T15:25:38.295Z,14.66
2022-08-20T15:45:43.649Z,15.21
2022-08-20T16:05:49.446Z,13.50
2022-08-20T16:25:55.694Z,14.38
2022-08-20T16:46:01.437Z,15.63
2022-08-20T17:06:07.694Z,8.86
2022-08-20T17:26:13.467Z,9.09
2022-08-20T17:46:19.749Z,11.95
2022-08-20T18:06:29.855Z,9.58
2022-08-20T18:26:30.845Z,9.85
2022-08-20T18:46:36.585Z,8.57
2022-08-20T19:06:42.341Z,7.50
2022-08-20T19:26:48.598Z,6.37
2022-08-20T19:46:54.807Z,5.30
2022-08-20T20:07:00.651Z,4.25
2022-08-20T20:27:06.849Z,5.83
2022-08-20T20:47:12.157Z,8.23
2022-08-20T21:07:17.935Z,9.30
2022-08-20T21:27:23.734Z,8.60
2022-08-20T21:47:29.493Z,8.72
2022-08-20T22:07:35.258Z,9.27
2022-08-20T22:27:41.506Z,9.56
2022-08-20T22:47:47.737Z,9.96
2022-08-20T23:07:54.258Z,12.57
2022-08-20T23:28:04.068Z,8.59
2022-08-20T23:48:04.515Z,8.72
